Time;durP1;ratioP1;P1;durP2;ratioP2;P2;SDS_P1;SDS_P2;PMS_P1;PMS_P2;Temp;Humidity;BMP_temperature;BMP_pressure;BME280_temperature;BME280_humidity;BME280_pressure;Samples;Min_cycle;Max_cycle;Signal;HPM_P1;HPM_P2
2022/06/16 00:00:59;;;;;;;8.93;4.40;;;13.80;99.90;;;;;;5005085;28;20145;-79
2022/06/16 00:03:25;;;;;;;9.02;4.57;;;13.80;99.90;;;;;;4999146;28;20121;-79
2022/06/16 00:05:51;;;;;;;9.02;4.40;;;13.90;99.90;;;;;;4995384;28;20030;-79
2022/06/16 00:08:18;;;;;;;9.10;4.28;;;13.80;99.90;;;;;;5007372;28;20038;-79
2022/06/16 00:13:36;;;;;;;8.48;5.25;;;13.60;99.90;;;;;;5009309;28;20057;-78
2022/06/16 00:16:03;;;;;;;;;;;13.60;99.90;;;;;;4987490;28;20129;-80
2022/06/16 00:18:29;;;;;;;8.80;3.80;;;13.70;99.90;;;;;;4989749;28;19918;-79
2022/06/16 00:20:55;;;;;;;7.88;4.30;;;13.70;99.90;;;;;;4986355;28;20073;-79
2022/06/16 00:23:21;;;;;;;9.18;5.60;;;13.70;99.90;;;;;;4996117;28;20128;-79
2022/06/16 00:25:47;;;;;;;8.98;5.90;;;13.70;99.90;;;;;;4988924;28;20053;-79
2022/06/16 00:28:13;;;;;;;10.00;5.32;;;13.60;99.90;;;;;;4991548;28;20044;-79
2022/06/16 00:30:39;;;;;;;10.30;5.65;;;13.60;99.90;;;;;;4998192;28;20129;-79
2022/06/16 00:33:05;;;;;;;8.55;4.70;;;13.60;99.90;;;;;;5014399;28;20049;-79
2022/06/16 00:35:31;;;;;;;11.05;6.10;;;13.70;99.90;;;;;;4960590;28;20041;-79
2022/06/16 00:37:56;;;;;;;9.95;5.70;;;13.60;99.90;;;;;;4998721;28;20050;-79
2022/06/16 00:40:22;;;;;;;10.00;5.90;;;13.40;99.90;;;;;;4998874;28;20121;-79
2022/06/16 00:42:48;;;;;;;11.13;6.43;;;13.30;99.90;;;;;;5005822;28;20073;-79
2022/06/16 00:45:53;;;;;;;9.52;6.07;;;13.20;99.90;;;;;;4981490;28;20073;-78
2022/06/16 00:48:57;;;;;;;10.68;6.18;;;13.10;99.90;;;;;;5002685;28;20060;-78
2022/06/16 00:51:54;;;;;;;9.57;4.63;;;13.10;99.90;;;;;;4974948;28;20042;-79
2022/06/16 00:54:25;;;;;;;9.63;5.55;;;13.20;99.90;;;;;;4996176;28;20103;-79
2022/06/16 00:56:54;;;;;;;7.77;4.00;;;13.20;99.90;;;;;;4999888;28;20481;-79
2022/06/16 00:59:21;;;;;;;6.95;3.75;;;13.20;99.90;;;;;;4998670;28;20327;-79
2022/06/16 01:01:48;;;;;;;9.65;4.80;;;13.30;99.90;;;;;;4997636;28;20378;-79
2022/06/16 01:07:03;;;;;;;10.52;5.80;;;13.30;99.90;;;;;;5007624;28;20053;-79
2022/06/16 01:09:31;;;;;;;11.38;5.75;;;13.20;99.90;;;;;;4997067;28;20050;-79
2022/06/16 01:15:29;;;;;;;8.48;5.03;;;13.10;99.90;;;;;;4990916;28;20039;-78
2022/06/16 01:18:30;;;;;;;8.27;4.40;;;13.10;99.90;;;;;;5002365;28;20038;-79
2022/06/16 01:21:17;;;;;;;10.93;4.80;;;13.10;99.90;;;;;;5010074;28;20078;-79
2022/06/16 01:24:02;;;;;;;8.57;5.28;;;13.10;99.90;;;;;;5004527;28;20041;-79
2022/06/16 01:27:00;;;;;;;10.02;5.15;;;13.10;99.90;;;;;;5002898;28;20513;-79
2022/06/16 01:29:48;;;;;;;10.15;5.55;;;13.10;99.90;;;;;;5005349;28;20034;-79
2022/06/16 01:32:39;;;;;;;9.02;4.22;;;13.00;99.90;;;;;;5009623;28;20038;-79
2022/06/16 01:35:19;;;;;;;12.05;5.50;;;13.00;99.90;;;;;;5005491;28;20082;-79
2022/06/16 01:37:53;;;;;;;11.15;6.07;;;13.00;99.90;;;;;;5005397;28;20558;-79
2022/06/16 01:40:29;;;;;;;10.95;5.82;;;12.80;99.90;;;;;;4994479;28;20689;-79
2022/06/16 01:43:12;;;;;;;9.48;5.72;;;12.60;99.90;;;;;;5007827;28;20038;-79
2022/06/16 01:45:42;;;;;;;12.05;5.60;;;12.60;99.90;;;;;;5012051;28;20112;-79
2022/06/16 01:48:11;;;;;;;10.02;5.80;;;12.60;99.90;;;;;;5023555;28;20030;-79
2022/06/16 01:50:44;;;;;;;10.75;5.68;;;12.60;99.90;;;;;;4984130;28;20042;-79
2022/06/16 01:53:21;;;;;;;9.85;6.07;;;12.60;99.90;;;;;;5007409;28;20038;-79
2022/06/16 01:55:53;;;;;;;11.57;5.88;;;12.60;99.90;;;;;;4987255;28;20516;-79
2022/06/16 01:58:33;;;;;;;10.73;5.97;;;12.50;99.90;;;;;;5004910;28;20373;-79
2022/06/16 02:01:04;;;;;;;9.93;4.47;;;12.50;99.90;;;;;;5008949;28;20283;-79
2022/06/16 02:03:37;;;;;;;7.55;4.10;;;12.50;99.90;;;;;;4999456;28;20081;-79
2022/06/16 02:06:20;;;;;;;10.32;5.57;;;12.60;99.90;;;;;;5005822;28;20084;-79
2022/06/16 02:08:50;;;;;;;8.63;4.10;;;12.60;99.90;;;;;;5009357;28;20124;-79
2022/06/16 02:11:19;;;;;;;9.05;3.83;;;12.70;99.90;;;;;;5006377;28;20068;-78
2022/06/16 02:13:54;;;;;;;9.02;5.53;;;12.80;99.90;;;;;;5006671;28;20041;-79
2022/06/16 02:16:23;;;;;;;10.77;6.32;;;12.80;99.90;;;;;;5007600;28;20409;-79
2022/06/16 02:18:51;;;;;;;7.32;3.50;;;12.80;99.90;;;;;;5005078;28;20048;-80
2022/06/16 02:21:32;;;;;;;7.25;3.50;;;12.80;99.90;;;;;;5005357;28;20507;-79
2022/06/16 02:23:58;;;;;;;9.48;4.72;;;12.80;99.90;;;;;;5000988;28;20532;-79
2022/06/16 02:26:25;;;;;;;11.32;5.43;;;12.90;99.90;;;;;;4998460;28;20136;-79
2022/06/16 02:29:00;;;;;;;7.55;3.42;;;12.90;99.90;;;;;;4997229;28;20034;-79
2022/06/16 02:31:44;;;;;;;7.82;4.25;;;12.80;99.90;;;;;;4999302;28;20065;-79
2022/06/16 02:34:18;;;;;;;10.45;5.93;;;12.90;99.90;;;;;;5000124;28;20041;-80
2022/06/16 02:36:44;;;;;;;12.48;5.70;;;12.80;99.90;;;;;;4995948;28;20581;-79
2022/06/16 02:39:19;;;;;;;8.77;5.10;;;12.70;99.90;;;;;;4980952;28;20073;-79
2022/06/16 02:41:58;;;;;;;8.82;4.10;;;12.60;99.90;;;;;;5000795;28;20042;-79
2022/06/16 02:44:43;;;;;;;7.78;4.28;;;12.70;99.90;;;;;;4996227;28;20125;-79
2022/06/16 02:47:46;;;;;;;12.00;6.10;;;12.70;99.90;;;;;;4981237;28;20601;-79
2022/06/16 02:50:35;;;;;;;13.23;6.45;;;12.70;99.90;;;;;;5001182;28;20045;-79
2022/06/16 02:54:24;;;;;;;7.68;3.55;;;12.70;99.90;;;;;;4998835;28;20049;-79
2022/06/16 02:56:34;;;;;;;9.73;5.15;;;12.70;99.90;;;;;;4994213;28;20500;-79
2022/06/16 02:59:06;;;;;;;7.90;3.83;;;12.80;99.90;;;;;;5008245;28;20398;-79
2022/06/16 03:01:33;;;;;;;11.18;6.00;;;12.80;99.90;;;;;;5000421;28;20104;-79
2022/06/16 03:04:11;;;;;;;8.48;4.10;;;12.70;99.90;;;;;;5001626;28;20069;-79
2022/06/16 03:06:37;;;;;;;9.88;5.35;;;12.70;99.90;;;;;;5001756;28;20042;-80
2022/06/16 03:09:04;;;;;;;9.25;6.28;;;12.70;99.90;;;;;;5002573;28;20037;-79
2022/06/16 03:11:32;;;;;;;7.97;4.43;;;12.70;99.90;;;;;;4982144;28;20040;-79
2022/06/16 03:13:58;;;;;;;9.25;4.15;;;12.60;99.90;;;;;;4981420;28;20042;-79
2022/06/16 03:16:24;;;;;;;8.55;4.22;;;12.70;99.90;;;;;;4993999;28;20065;-79
2022/06/16 03:18:50;;;;;;;10.27;5.50;;;12.70;99.90;;;;;;4984552;28;20038;-79
2022/06/16 03:21:16;;;;;;;10.52;5.35;;;12.80;99.90;;;;;;4998125;28;20492;-79
2022/06/16 03:23:41;;;;;;;9.93;5.07;;;12.80;99.90;;;;;;4991628;28;20044;-79
2022/06/16 03:26:07;;;;;;;8.63;5.00;;;12.90;99.90;;;;;;4999290;28;20058;-80
2022/06/16 03:28:33;;;;;;;11.15;5.70;;;12.90;99.90;;;;;;4979426;28;20508;-80
2022/06/16 03:30:59;;;;;;;10.60;5.07;;;12.90;99.90;;;;;;4994003;28;20030;-79
2022/06/16 03:33:25;;;;;;;9.07;4.25;;;12.90;99.90;;;;;;4980296;28;20038;-79
2022/06/16 03:35:51;;;;;;;9.43;3.95;;;13.00;99.90;;;;;;4982451;28;20069;-79
2022/06/16 03:40:45;;;;;;;8.15;3.83;;;13.10;99.90;;;;;;4996529;28;20048;-79
2022/06/16 03:43:11;;;;;;;7.65;3.65;;;13.00;99.90;;;;;;4996102;28;20042;-79
2022/06/16 03:45:37;;;;;;;7.65;3.80;;;13.00;99.90;;;;;;4993823;28;20050;-79
2022/06/16 03:48:04;;;;;;;8.70;4.40;;;13.10;99.90;;;;;;5003711;28;20061;-80
2022/06/16 03:50:30;;;;;;;11.18;6.30;;;13.10;99.90;;;;;;4980010;28;20034;-79
2022/06/16 03:52:56;;;;;;;9.07;4.70;;;13.10;99.90;;;;;;4990610;28;20065;-79
2022/06/16 03:55:23;;;;;;;11.52;5.53;;;13.10;99.90;;;;;;4998019;28;20420;-79
2022/06/16 03:57:50;;;;;;;8.90;4.30;;;13.00;99.90;;;;;;4995428;28;20042;-79
2022/06/16 04:00:16;;;;;;;9.88;5.65;;;13.00;99.90;;;;;;4996330;28;20473;-79
2022/06/16 04:02:42;;;;;;;9.93;5.90;;;13.00;99.90;;;;;;4996990;28;20133;-79
2022/06/16 04:05:08;;;;;;;10.07;5.00;;;13.00;99.90;;;;;;4998475;28;20117;-79
2022/06/16 04:07:37;;;;;;;9.27;5.25;;;13.00;99.90;;;;;;4981907;28;20038;-79
2022/06/16 04:10:05;;;;;;;10.23;5.05;;;13.00;99.90;;;;;;4996075;28;20527;-79
2022/06/16 04:12:31;;;;;;;10.23;5.47;;;12.90;99.90;;;;;;5000043;28;20548;-79
2022/06/16 04:14:57;;;;;;;9.10;5.15;;;12.90;99.90;;;;;;4994558;28;20038;-80
2022/06/16 04:17:22;;;;;;;9.55;4.68;;;12.90;99.90;;;;;;4983318;28;20096;-79
2022/06/16 04:22:33;;;;;;;9.15;4.82;;;12.70;99.90;;;;;;4996320;28;20137;-79
2022/06/16 04:24:59;;;;;;;9.05;4.90;;;12.70;99.90;;;;;;5006253;28;20116;-79
2022/06/16 04:27:25;;;;;;;10.40;5.97;;;12.70;99.90;;;;;;4988835;28;20111;-79
2022/06/16 04:29:51;;;;;;;10.32;5.88;;;12.70;99.90;;;;;;4995668;28;20034;-79
2022/06/16 04:32:17;;;;;;;10.02;5.93;;;12.80;99.90;;;;;;5005456;28;20111;-79
2022/06/16 04:34:44;;;;;;;11.70;6.20;;;12.80;99.90;;;;;;4999885;28;20030;-80
2022/06/16 04:37:10;;;;;;;10.38;6.47;;;12.90;99.90;;;;;;5011723;28;20049;-79
2022/06/16 04:39:37;;;;;;;9.07;6.22;;;12.90;99.90;;;;;;5003017;28;20038;-79
2022/06/16 04:42:03;;;;;;;11.32;5.88;;;13.00;99.90;;;;;;5002802;28;20042;-79
2022/06/16 04:44:30;;;;;;;10.23;6.63;;;13.10;99.90;;;;;;5006778;28;20088;-79
2022/06/16 04:46:56;;;;;;;11.95;6.40;;;13.20;99.90;;;;;;4996346;28;20041;-79
2022/06/16 04:49:21;;;;;;;10.82;5.75;;;13.30;99.90;;;;;;4986302;28;20073;-78
2022/06/16 04:51:47;;;;;;;11.73;6.80;;;13.60;99.90;;;;;;5006322;28;20041;-78
2022/06/16 04:54:13;;;;;;;12.65;6.45;;;13.90;99.90;;;;;;4990373;28;20095;-79
2022/06/16 04:56:39;;;;;;;9.10;4.40;;;14.40;99.90;;;;;;5000212;28;20574;-79
2022/06/16 04:59:04;;;;;;;9.00;4.30;;;14.90;99.90;;;;;;5002875;28;20037;-80
2022/06/16 05:01:30;;;;;;;7.75;4.20;;;15.70;99.90;;;;;;5000537;28;20064;-78
2022/06/16 05:03:56;;;;;;;8.38;3.38;;;16.40;99.90;;;;;;5008346;28;20108;-79
2022/06/16 05:06:21;;;;;;;7.47;3.30;;;17.30;99.90;;;;;;5011179;28;20093;-79
2022/06/16 05:08:48;;;;;;;9.27;3.88;;;17.60;99.90;;;;;;4996745;28;20126;-79
2022/06/16 05:11:14;;;;;;;7.97;3.17;;;17.60;99.90;;;;;;5002313;28;20060;-79
2022/06/16 05:13:40;;;;;;;8.93;3.50;;;18.20;99.90;;;;;;5017018;28;20038;-78
2022/06/16 05:16:07;;;;;;;7.70;3.22;;;19.00;99.90;;;;;;5011821;28;20068;-78
2022/06/16 05:18:32;;;;;;;8.32;3.30;;;19.80;99.90;;;;;;5014555;28;20115;-79
2022/06/16 05:21:27;;;;;;;7.40;2.90;;;19.40;99.90;;;;;;5002840;28;20042;-79
2022/06/16 05:23:53;;;;;;;7.95;3.00;;;19.50;99.90;;;;;;4998189;28;20053;-80
2022/06/16 05:26:19;;;;;;;7.82;2.90;;;20.00;99.60;;;;;;4984691;28;20049;-80
2022/06/16 05:28:45;;;;;;;6.95;2.95;;;20.20;98.30;;;;;;4990938;28;20049;-80
2022/06/16 05:31:11;;;;;;;6.53;2.70;;;20.50;98.00;;;;;;5007219;28;20386;-80
2022/06/16 05:33:37;;;;;;;6.03;2.72;;;20.40;97.50;;;;;;4989583;28;20129;-80
2022/06/16 05:36:08;;;;;;;6.03;2.35;;;20.90;97.60;;;;;;4995965;28;20038;-80
2022/06/16 05:38:35;;;;;;;6.10;2.40;;;20.70;94.70;;;;;;5011009;28;20057;-80
2022/06/16 05:41:04;;;;;;;6.38;2.50;;;20.60;95.00;;;;;;4998042;28;20049;-80
2022/06/16 05:43:30;;;;;;;5.72;2.40;;;20.60;96.50;;;;;;5012866;28;20045;-80
2022/06/16 05:45:56;;;;;;;5.65;2.60;;;20.40;95.40;;;;;;5002318;28;20515;-80
2022/06/16 05:48:22;;;;;;;5.93;3.00;;;20.10;96.30;;;;;;5016444;28;20033;-80
2022/06/16 05:50:48;;;;;;;6.03;2.55;;;20.20;96.70;;;;;;5016236;28;20033;-80
2022/06/16 05:53:14;;;;;;;6.30;2.60;;;20.50;97.50;;;;;;4999667;28;20483;-80
2022/06/16 05:55:40;;;;;;;7.30;2.40;;;20.60;95.70;;;;;;4995467;28;20046;-80
2022/06/16 05:58:05;;;;;;;7.55;2.90;;;20.50;95.50;;;;;;5012135;28;20045;-81
2022/06/16 06:00:31;;;;;;;6.47;2.75;;;20.10;94.70;;;;;;4983608;28;20042;-80
2022/06/16 06:02:58;;;;;;;5.97;2.85;;;19.80;97.10;;;;;;4999747;28;20107;-80
2022/06/16 06:05:28;;;;;;;6.97;2.50;;;19.50;98.00;;;;;;5005323;28;20457;-80
2022/06/16 06:16:37;;;;;;;5.95;2.60;;;20.40;98.40;;;;;;4998618;28;20049;-80
2022/06/16 06:19:24;;;;;;;6.90;2.70;;;19.70;97.80;;;;;;5011745;28;20407;-80
2022/06/16 06:22:03;;;;;;;6.22;2.55;;;20.10;97.10;;;;;;5003833;28;20080;-80
2022/06/16 06:24:38;;;;;;;6.32;2.50;;;20.50;96.40;;;;;;5014598;28;20033;-80
2022/06/16 06:27:25;;;;;;;6.38;2.50;;;21.80;96.00;;;;;;5011519;28;20041;-80
2022/06/16 06:29:51;;;;;;;7.85;2.40;;;21.70;91.10;;;;;;4996894;28;20076;-80
2022/06/16 06:32:19;;;;;;;6.15;2.55;;;21.50;92.00;;;;;;5015873;28;20029;-80
2022/06/16 06:34:45;;;;;;;5.32;2.15;;;22.40;90.80;;;;;;5015766;28;20045;-80
2022/06/16 06:37:13;;;;;;;5.78;2.08;;;22.20;90.20;;;;;;5013660;28;20102;-80
2022/06/16 06:39:40;;;;;;;5.80;2.30;;;22.80;83.80;;;;;;5004358;28;20041;-80
2022/06/16 06:42:06;;;;;;;6.00;1.80;;;23.10;78.00;;;;;;5011971;28;20453;-80
2022/06/16 06:44:32;;;;;;;5.63;2.00;;;23.00;78.30;;;;;;5015792;28;20073;-80
2022/06/16 06:50:40;;;;;;;6.18;2.25;;;22.30;75.50;;;;;;5016813;28;20388;-80
2022/06/16 06:53:07;;;;;;;5.85;2.45;;;22.90;78.80;;;;;;5003309;28;20060;-80
2022/06/16 06:55:36;;;;;;;6.43;2.50;;;22.80;75.50;;;;;;5001834;28;20046;-80
2022/06/16 06:58:06;;;;;;;6.63;2.80;;;23.50;73.00;;;;;;5006427;28;20100;-80
2022/06/16 07:00:32;;;;;;;5.75;2.30;;;22.40;71.90;;;;;;5031754;28;20520;-80
2022/06/16 07:02:58;;;;;;;6.13;2.33;;;22.90;74.40;;;;;;5015251;28;20488;-80
2022/06/16 07:05:24;;;;;;;6.57;2.30;;;22.80;72.70;;;;;;4991911;28;20554;-80
2022/06/16 07:07:50;;;;;;;5.93;2.28;;;23.10;73.00;;;;;;5000668;28;20037;-80
2022/06/16 07:10:18;;;;;;;6.68;2.35;;;23.20;74.60;;;;;;5002165;28;20038;-80
2022/06/16 07:12:44;;;;;;;5.80;1.90;;;23.40;71.80;;;;;;5000960;28;20045;-80
2022/06/16 07:15:10;;;;;;;6.80;1.70;;;23.90;71.50;;;;;;4991758;28;20373;-81
2022/06/16 07:17:37;;;;;;;5.45;1.83;;;24.30;68.70;;;;;;5040952;28;20052;-80
2022/06/16 07:20:03;;;;;;;4.57;1.52;;;24.70;64.20;;;;;;5014708;28;20049;-80
2022/06/16 07:22:29;;;;;;;9.65;2.22;;;24.90;62.70;;;;;;5014868;28;20048;-80
2022/06/16 07:24:54;;;;;;;3.97;1.45;;;24.70;62.20;;;;;;5013751;28;20041;-80
2022/06/16 07:27:21;;;;;;;5.68;1.30;;;24.60;57.30;;;;;;4995345;28;20046;-80
2022/06/16 07:29:49;;;;;;;4.78;1.45;;;24.40;56.40;;;;;;4988369;28;20132;-81
2022/06/16 07:32:17;;;;;;;5.05;1.33;;;24.20;58.90;;;;;;4997016;28;20125;-80
2022/06/16 07:34:43;;;;;;;4.50;1.50;;;24.40;60.00;;;;;;5013361;28;20037;-80
2022/06/16 07:37:09;;;;;;;4.55;1.40;;;24.90;58.90;;;;;;5012963;28;20412;-81
2022/06/16 07:39:34;;;;;;;5.18;1.40;;;25.10;56.80;;;;;;5013650;28;20038;-80
2022/06/16 07:42:00;;;;;;;4.38;1.25;;;24.70;58.60;;;;;;4981203;28;20042;-80
2022/06/16 07:44:26;;;;;;;3.78;1.10;;;24.60;56.80;;;;;;4994546;28;20036;-80
2022/06/16 07:46:52;;;;;;;4.18;1.00;;;24.20;56.30;;;;;;4986117;28;20050;-80
2022/06/16 07:49:22;;;;;;;4.93;1.20;;;23.90;54.10;;;;;;4998168;28;20502;-80
2022/06/16 07:51:52;;;;;;;5.70;1.13;;;23.80;52.80;;;;;;4998147;28;20038;-80
2022/06/16 07:54:18;;;;;;;3.28;0.95;;;23.70;54.90;;;;;;5000834;28;20042;-80
2022/06/16 07:56:45;;;;;;;4.13;1.05;;;23.40;54.10;;;;;;5014600;28;20215;-80
2022/06/16 07:59:12;;;;;;;3.88;1.05;;;23.60;54.80;;;;;;4997911;28;20130;-80
2022/06/16 08:01:38;;;;;;;3.83;1.25;;;23.90;53.80;;;;;;5014673;28;20515;-80
2022/06/16 08:04:05;;;;;;;4.40;1.00;;;23.90;51.80;;;;;;5014705;28;20047;-80
2022/06/16 08:06:33;;;;;;;4.47;1.10;;;23.70;56.20;;;;;;4994365;28;20065;-80
2022/06/16 08:08:59;;;;;;;4.03;1.10;;;24.10;56.90;;;;;;4995073;28;20041;-80
2022/06/16 08:14:09;;;;;;;5.03;1.20;;;24.40;53.90;;;;;;5007008;28;20037;-80
2022/06/16 08:16:36;;;;;;;4.40;1.20;;;25.20;51.90;;;;;;5014819;28;20044;-80
2022/06/16 08:19:02;;;;;;;4.05;1.20;;;25.30;52.80;;;;;;4998745;28;20524;-80
2022/06/16 08:21:28;;;;;;;5.60;1.30;;;25.30;52.60;;;;;;5011467;28;20053;-80
2022/06/16 08:23:55;;;;;;;3.20;1.00;;;24.80;53.40;;;;;;5004679;28;20046;-80
2022/06/16 08:26:21;;;;;;;3.90;1.10;;;24.50;53.30;;;;;;5017474;28;20057;-80
2022/06/16 08:28:50;;;;;;;4.72;1.20;;;24.70;53.00;;;;;;5000842;28;20076;-80
2022/06/16 08:31:17;;;;;;;5.00;1.30;;;24.80;52.00;;;;;;5001720;28;20037;-80
2022/06/16 08:33:43;;;;;;;4.50;1.23;;;24.90;52.20;;;;;;4985806;28;20103;-80
2022/06/16 08:36:09;;;;;;;6.03;1.20;;;25.10;52.60;;;;;;4985321;28;20034;-80
2022/06/16 08:38:35;;;;;;;6.10;1.30;;;24.80;52.80;;;;;;5001926;28;20399;-80
2022/06/16 08:41:11;;;;;;;5.30;1.30;;;25.10;52.00;;;;;;4980264;28;20514;-81
2022/06/16 08:43:49;;;;;;;5.13;1.10;;;24.90;51.00;;;;;;4994727;28;20526;-80
2022/06/16 08:46:17;;;;;;;4.85;1.50;;;25.00;51.00;;;;;;5021031;28;20602;-80
2022/06/16 08:49:18;;;;;;;5.53;1.50;;;24.50;49.60;;;;;;5018108;28;20436;-80
2022/06/16 08:52:09;;;;;;;5.13;1.23;;;23.60;52.30;;;;;;4990910;28;20038;-80
2022/06/16 08:55:10;;;;;;;5.85;1.50;;;23.50;52.50;;;;;;5001089;28;20041;-80
2022/06/16 08:58:13;;;;;;;5.05;1.58;;;23.70;53.60;;;;;;5015875;28;20041;-80
2022/06/16 09:00:46;;;;;;;4.68;1.40;;;23.90;52.80;;;;;;5010891;28;20515;-80
2022/06/16 09:03:34;;;;;;;6.47;1.63;;;23.90;52.50;;;;;;5017236;28;20053;-81
2022/06/16 09:06:16;;;;;;;5.47;1.70;;;24.00;53.40;;;;;;5016991;28;20081;-80
2022/06/16 09:09:02;;;;;;;4.93;1.40;;;24.40;52.90;;;;;;4992466;28;20404;-81
2022/06/16 09:11:44;;;;;;;4.22;1.45;;;24.50;53.20;;;;;;5011430;28;20042;-80
2022/06/16 09:17:28;;;;;;;;;;;24.60;52.50;;;;;;5025312;28;20077;-80
2022/06/16 09:20:12;;;;;;;5.07;1.95;;;24.90;52.60;;;;;;5033316;28;20075;-80
2022/06/16 09:23:03;;;;;;;5.25;1.80;;;24.60;52.00;;;;;;5000790;28;20037;-80
2022/06/16 09:25:38;;;;;;;5.65;1.77;;;24.40;52.80;;;;;;5017105;28;20571;-80
2022/06/16 09:28:15;;;;;;;5.53;1.90;;;24.40;52.30;;;;;;5016863;28;20052;-80
2022/06/16 09:30:44;;;;;;;7.22;2.10;;;24.50;53.00;;;;;;5000508;28;20484;-80
2022/06/16 09:33:18;;;;;;;5.07;1.95;;;24.30;54.60;;;;;;5000704;28;20487;-81
2022/06/16 09:35:51;;;;;;;4.55;1.80;;;24.40;54.60;;;;;;5030099;28;20116;-81
2022/06/16 09:38:26;;;;;;;5.90;1.80;;;24.40;55.30;;;;;;5006129;28;20054;-81
2022/06/16 09:40:59;;;;;;;6.57;2.17;;;24.60;54.80;;;;;;5031564;28;20492;-81
2022/06/16 09:43:31;;;;;;;5.07;2.03;;;24.50;54.10;;;;;;5016847;28;20033;-81
2022/06/16 09:46:03;;;;;;;6.30;2.00;;;24.40;53.10;;;;;;5000168;28;20116;-81
2022/06/16 09:48:51;;;;;;;5.50;2.15;;;24.40;52.60;;;;;;5016651;28;20048;-79
2022/06/16 09:51:23;;;;;;;5.40;1.88;;;24.40;52.10;;;;;;4996518;28;20034;-81
2022/06/16 09:54:05;;;;;;;6.18;2.10;;;24.40;51.50;;;;;;5016710;28;20455;-80
2022/06/16 09:56:55;;;;;;;7.03;2.25;;;24.20;52.20;;;;;;5003700;28;20041;-80
2022/06/16 09:59:30;;;;;;;5.93;1.92;;;24.30;51.00;;;;;;5005443;28;20041;-80
2022/06/16 10:02:11;;;;;;;4.95;2.00;;;24.30;52.50;;;;;;5016484;28;20063;-80
2022/06/16 10:04:37;;;;;;;5.75;2.22;;;24.60;50.00;;;;;;4996474;28;20042;-80
2022/06/16 10:07:24;;;;;;;6.05;1.95;;;24.00;49.20;;;;;;5005534;28;20042;-81
2022/06/16 10:10:13;;;;;;;5.65;2.00;;;24.30;51.20;;;;;;4999645;28;20037;-80
2022/06/16 10:13:05;;;;;;;5.57;2.03;;;24.70;51.70;;;;;;4999783;28;20040;-81
2022/06/16 10:15:39;;;;;;;7.65;2.33;;;24.90;51.50;;;;;;4981248;28;20053;-80
2022/06/16 10:18:06;;;;;;;6.47;2.38;;;24.70;50.50;;;;;;5012431;28;20073;-80
2022/06/16 10:20:32;;;;;;;5.40;2.30;;;24.40;50.80;;;;;;5002301;28;20515;-80
2022/06/16 10:23:09;;;;;;;6.25;2.38;;;24.00;51.90;;;;;;4999221;28;20041;-80
2022/06/16 10:25:41;;;;;;;5.13;2.30;;;23.90;52.10;;;;;;5015884;28;20057;-80
2022/06/16 10:28:35;;;;;;;5.80;2.20;;;23.90;51.90;;;;;;5012794;28;20054;-81
2022/06/16 10:31:03;;;;;;;6.55;2.25;;;24.10;54.10;;;;;;4986723;28;20117;-81
2022/06/16 10:33:33;;;;;;;6.88;2.13;;;24.50;53.10;;;;;;5015661;28;20036;-80
2022/06/16 10:36:28;;;;;;;6.22;2.40;;;24.70;53.80;;;;;;5015525;28;20079;-81
2022/06/16 10:39:18;;;;;;;6.80;2.55;;;24.90;52.30;;;;;;4971037;28;20052;-80
2022/06/16 10:42:17;;;;;;;6.07;2.15;;;24.60;52.50;;;;;;5003848;28;20037;-80
2022/06/16 10:44:55;;;;;;;6.43;2.35;;;24.40;52.90;;;;;;5015742;28;20128;-80
2022/06/16 10:47:34;;;;;;;8.73;2.50;;;24.40;53.00;;;;;;4997513;28;20055;-80
2022/06/16 10:50:03;;;;;;;6.90;2.50;;;24.20;51.80;;;;;;5012512;28;20045;-80
2022/06/16 10:52:39;;;;;;;7.10;2.88;;;24.40;53.10;;;;;;5010974;28;20043;-80
2022/06/16 10:55:11;;;;;;;7.07;2.70;;;24.00;52.90;;;;;;5015840;28;20398;-80
2022/06/16 10:57:46;;;;;;;6.53;2.75;;;24.40;54.40;;;;;;5015674;28;20154;-80
2022/06/16 11:00:20;;;;;;;7.07;2.70;;;24.50;53.10;;;;;;5015734;28;20407;-80
2022/06/16 11:03:03;;;;;;;7.20;2.90;;;24.30;53.00;;;;;;5015232;28;20052;-80
2022/06/16 11:05:34;;;;;;;5.43;2.40;;;24.30;51.40;;;;;;5015330;28;20108;-80
2022/06/16 11:08:12;;;;;;;6.43;2.40;;;24.50;54.00;;;;;;5011917;28;20121;-80
2022/06/16 11:10:52;;;;;;;7.50;2.90;;;24.60;55.10;;;;;;5006909;28;20041;-80
2022/06/16 11:13:25;;;;;;;6.20;2.58;;;24.70;52.80;;;;;;5015351;28;20026;-80
2022/06/16 11:15:51;;;;;;;7.25;2.85;;;25.00;54.90;;;;;;5015676;28;20041;-80
2022/06/16 11:18:21;;;;;;;6.45;3.10;;;25.10;53.10;;;;;;4998543;28;20128;-80
2022/06/16 11:20:50;;;;;;;7.43;2.90;;;25.30;53.60;;;;;;5012181;28;20045;-80
2022/06/16 11:23:18;;;;;;;7.65;2.80;;;25.40;52.90;;;;;;4998744;28;20037;-80
2022/06/16 11:25:45;;;;;;;6.68;2.97;;;25.40;54.30;;;;;;4999048;28;20128;-81
2022/06/16 11:28:13;;;;;;;7.47;3.10;;;25.40;53.40;;;;;;5015167;28;20041;-80
2022/06/16 11:30:53;;;;;;;7.32;3.00;;;25.30;53.00;;;;;;4995187;28;20488;-80
2022/06/16 11:36:40;;;;;;;8.40;3.03;;;24.80;53.80;;;;;;5014697;28;20045;-80
2022/06/16 11:39:34;;;;;;;6.10;2.70;;;24.70;54.50;;;;;;5013069;28;20045;-80
2022/06/16 11:42:00;;;;;;;7.18;2.90;;;24.80;54.00;;;;;;5006789;28;20081;-80
2022/06/16 11:44:50;;;;;;;6.60;2.60;;;24.70;52.90;;;;;;5014840;28;20111;-80
2022/06/16 11:47:21;;;;;;;7.63;2.95;;;24.90;54.70;;;;;;4998904;28;20045;-81
2022/06/16 11:50:08;;;;;;;8.30;2.90;;;24.90;54.40;;;;;;5014876;28;20107;-80
2022/06/16 11:52:44;;;;;;;5.72;2.72;;;25.00;54.70;;;;;;4998461;28;20065;-80
2022/06/16 11:55:49;;;;;;;6.22;2.67;;;25.30;53.90;;;;;;4998807;28;20041;-81
2022/06/16 11:58:30;;;;;;;6.22;2.92;;;25.50;54.40;;;;;;5000077;28;20056;-80
2022/06/16 12:01:19;;;;;;;6.18;3.00;;;25.40;53.20;;;;;;5015755;28;20046;-80
2022/06/16 12:03:58;;;;;;;6.53;2.85;;;25.40;54.40;;;;;;5013500;28;20056;-79
2022/06/16 12:06:26;;;;;;;7.03;3.00;;;25.30;51.50;;;;;;5022090;28;20484;-80
2022/06/16 12:09:13;;;;;;;6.78;3.30;;;25.30;52.20;;;;;;5019205;28;20069;-79
2022/06/16 12:12:02;;;;;;;7.78;2.92;;;24.80;53.70;;;;;;5002315;28;20037;-79
2022/06/16 12:14:36;;;;;;;6.80;2.70;;;24.60;53.30;;;;;;5007212;28;20069;-78
2022/06/16 12:17:16;;;;;;;6.55;2.65;;;24.50;56.40;;;;;;4994601;28;20034;-80
2022/06/16 12:20:05;;;;;;;5.55;2.67;;;24.80;56.80;;;;;;5015096;28;20510;-80
2022/06/16 12:22:45;;;;;;;6.78;3.05;;;24.60;55.70;;;;;;4991018;28;20049;-80
2022/06/16 12:25:32;;;;;;;6.53;2.80;;;24.20;57.10;;;;;;5017848;28;20175;-80
2022/06/16 12:28:06;;;;;;;6.18;2.83;;;24.70;54.70;;;;;;5014315;28;20419;-80
2022/06/16 12:30:39;;;;;;;6.20;2.70;;;24.60;53.60;;;;;;4998519;28;20046;-80
2022/06/16 12:33:26;;;;;;;7.68;3.20;;;24.30;55.80;;;;;;4998933;28;20038;-80
2022/06/16 12:36:20;;;;;;;8.13;2.97;;;24.00;56.50;;;;;;5016983;28;20507;-80
2022/06/16 12:38:50;;;;;;;8.35;3.08;;;23.60;57.40;;;;;;5013158;28;20107;-80
2022/06/16 12:41:25;;;;;;;6.63;2.70;;;23.40;59.30;;;;;;5006066;28;20368;-80
2022/06/16 12:44:09;;;;;;;6.88;3.13;;;23.40;58.40;;;;;;5018378;28;20518;-80
2022/06/16 12:46:46;;;;;;;7.70;2.58;;;23.20;59.90;;;;;;5018112;28;20380;-80
2022/06/16 12:49:42;;;;;;;6.72;2.83;;;23.50;60.50;;;;;;5018059;28;20574;-81
2022/06/16 12:52:14;;;;;;;7.82;2.63;;;24.10;58.70;;;;;;4995824;28;20052;-80
2022/06/16 12:54:47;;;;;;;6.15;2.70;;;24.40;58.20;;;;;;5012367;28;20420;-80
2022/06/16 12:57:21;;;;;;;7.07;3.10;;;24.90;59.60;;;;;;5010709;28;20492;-80
2022/06/16 13:00:01;;;;;;;5.78;2.58;;;25.10;54.60;;;;;;5000761;28;20033;-80
2022/06/16 13:02:35;;;;;;;7.38;2.45;;;25.00;56.00;;;;;;5017504;28;20052;-80
2022/06/16 13:05:08;;;;;;;5.35;2.60;;;25.00;56.10;;;;;;4997527;28;20038;-80
2022/06/16 13:07:41;;;;;;;7.13;2.78;;;25.00;57.10;;;;;;5011064;28;20041;-80
2022/06/16 13:10:10;;;;;;;6.43;2.40;;;25.20;56.10;;;;;;5000383;28;20045;-80
2022/06/16 13:12:43;;;;;;;7.72;2.83;;;24.90;54.10;;;;;;5003995;28;20091;-80
2022/06/16 13:15:31;;;;;;;7.32;2.50;;;24.60;53.90;;;;;;4985818;28;20041;-80
2022/06/16 13:18:20;;;;;;;5.55;2.42;;;24.40;55.40;;;;;;5012875;28;20072;-79
2022/06/16 13:20:50;;;;;;;6.35;2.63;;;24.50;57.90;;;;;;5014077;28;20324;-80
2022/06/16 13:23:19;;;;;;;5.75;2.28;;;24.40;55.50;;;;;;5013849;28;20097;-80
2022/06/16 13:25:50;;;;;;;6.60;2.50;;;24.50;56.40;;;;;;5010568;28;20089;-79
2022/06/16 13:28:16;;;;;;;;;;;24.70;56.10;;;;;;5013159;28;20089;-80
2022/06/16 13:30:58;;;;;;;7.97;2.60;;;24.70;54.80;;;;;;5016690;28;19968;-80
2022/06/16 13:33:44;;;;;;;5.05;2.50;;;24.50;54.80;;;;;;5016770;28;20037;-80
2022/06/16 13:36:30;;;;;;;6.22;2.70;;;24.40;54.30;;;;;;4986719;28;20433;-79
2022/06/16 13:38:57;;;;;;;5.63;2.63;;;24.60;54.10;;;;;;4990493;28;20056;-80
2022/06/16 13:41:34;;;;;;;5.50;2.13;;;24.40;53.70;;;;;;4999777;28;20042;-79
2022/06/16 13:44:10;;;;;;;6.63;2.42;;;24.50;54.20;;;;;;5003328;28;20484;-79
2022/06/16 13:46:48;;;;;;;6.80;2.30;;;24.70;55.30;;;;;;5000357;28;20051;-80
2022/06/16 13:49:25;;;;;;;6.60;2.67;;;24.80;54.10;;;;;;5016448;28;20506;-79
2022/06/16 13:51:52;;;;;;;7.50;2.50;;;24.70;53.60;;;;;;5006436;28;20126;-80